createdAt,value
2022-12-19T00:00:30.253Z,-0.25
2022-12-19T00:01:30.437Z,-0.25
2022-12-19T00:02:30.644Z,-0.26
2022-12-19T00:03:30.911Z,-0.28
2022-12-19T00:04:30.920Z,-0.25
2022-12-19T00:05:31.077Z,-0.19
2022-12-19T00:06:31.245Z,-0.30
2022-12-19T00:07:31.411Z,-0.23
2022-12-19T00:08:31.571Z,-0.21
2022-12-19T00:09:31.773Z,-0.25
2022-12-19T00:10:31.936Z,-0.23
2022-12-19T00:11:32.103Z,-0.18
2022-12-19T00:12:32.272Z,-0.17
2022-12-19T00:13:40.767Z,-0.19
2022-12-19T00:14:33.643Z,-0.19
2022-12-19T00:15:32.783Z,-0.23
2022-12-19T00:16:33.012Z,-0.18
2022-12-19T00:17:33.140Z,-0.19
2022-12-19T00:18:33.295Z,-0.18
2022-12-19T00:19:33.481Z,-0.15
2022-12-19T00:20:33.654Z,-0.21
2022-12-19T00:21:35.121Z,-0.17
2022-12-19T00:22:33.982Z,-0.18
2022-12-19T00:23:34.145Z,-0.19
2022-12-19T00:24:34.324Z,-0.25
2022-12-19T00:25:34.499Z,-0.19
2022-12-19T00:26:34.685Z,-0.17
2022-12-19T00:27:34.852Z,-0.23
2022-12-19T00:28:35.006Z,-0.18
2022-12-19T00:29:35.208Z,-0.23
2022-12-19T00:30:35.343Z,-0.21
2022-12-19T00:31:35.565Z,-0.17
2022-12-19T00:32:35.673Z,-0.23
2022-12-19T00:33:37.442Z,-0.14
2022-12-19T00:34:37.079Z,-0.19
2022-12-19T00:35:36.214Z,-0.15
2022-12-19T00:36:37.328Z,-0.17
2022-12-19T00:37:36.550Z,-0.12
2022-12-19T00:38:36.725Z,-0.15
2022-12-19T00:39:36.942Z,-0.12
2022-12-19T00:40:37.064Z,-0.12
2022-12-19T00:41:37.264Z,-0.18
2022-12-19T00:42:37.381Z,-0.18
2022-12-19T00:43:37.559Z,-0.10
2022-12-19T00:44:37.721Z,-0.17
2022-12-19T00:45:37.921Z,-0.12
2022-12-19T00:46:38.057Z,-0.17
2022-12-19T00:47:38.218Z,-0.11
2022-12-19T00:48:38.384Z,-0.18
2022-12-19T00:49:38.575Z,-0.18
2022-12-19T00:50:38.746Z,-0.14
2022-12-19T00:51:38.939Z,-0.18
2022-12-19T00:52:39.078Z,-0.14
2022-12-19T00:53:39.276Z,-0.14
2022-12-19T00:54:39.509Z,-0.21
2022-12-19T00:55:39.620Z,-0.08
2022-12-19T00:56:39.778Z,-0.14
2022-12-19T00:57:39.946Z,-0.11
2022-12-19T00:58:46.392Z,-0.12
2022-12-19T00:59:41.325Z,-0.11
2022-12-19T01:00:40.551Z,-0.15
2022-12-19T01:01:40.918Z,-0.12
2022-12-19T01:02:40.975Z,-0.11
2022-12-19T01:03:52.902Z,-0.08
2022-12-19T01:04:42.251Z,-0.08
2022-12-19T01:05:42.179Z,-0.10
2022-12-19T01:06:41.519Z,-0.10
2022-12-19T01:07:41.693Z,-0.08
2022-12-19T01:08:41.850Z,-0.08
2022-12-19T01:09:42.037Z,-0.10
2022-12-19T01:10:42.179Z,-0.08
2022-12-19T01:11:42.371Z,-0.15
2022-12-19T01:12:42.531Z,-0.08
2022-12-19T01:13:42.735Z,-0.10
2022-12-19T01:14:42.905Z,-0.08
2022-12-19T01:15:43.058Z,-0.08
2022-12-19T01:16:43.255Z,-0.10
2022-12-19T01:17:44.616Z,-0.11
2022-12-19T01:18:43.556Z,-0.10
2022-12-19T01:19:44.786Z,-0.05
2022-12-19T01:20:43.906Z,-0.07
2022-12-19T01:21:44.081Z,-0.10
2022-12-19T01:22:44.251Z,-0.07
2022-12-19T01:23:44.416Z,-0.00
2022-12-19T01:24:44.587Z,-0.11
2022-12-19T01:25:45.904Z,-0.07
2022-12-19T01:26:44.911Z,-0.00
2022-12-19T01:27:45.091Z,-0.00
2022-12-19T01:28:45.327Z,-0.02
2022-12-19T01:29:52.794Z,0.01
2022-12-19T01:30:46.602Z,0.02
2022-12-19T01:31:45.871Z,-0.07
2022-12-19T01:32:45.925Z,0.02
2022-12-19T01:33:46.121Z,0.02
2022-12-19T01:34:46.274Z,0.01
2022-12-19T01:35:46.445Z,0.02
2022-12-19T01:36:46.617Z,0.07
2022-12-19T01:37:46.792Z,0.02
2022-12-19T01:38:46.971Z,0.07
2022-12-19T01:39:47.134Z,0.01
2022-12-19T01:40:47.294Z,0.07
2022-12-19T01:41:47.443Z,0.01
2022-12-19T01:42:47.655Z,0.02
2022-12-19T01:43:47.781Z,0.04
2022-12-19T01:44:47.950Z,0.07
2022-12-19T01:45:48.176Z,0.04
2022-12-19T01:46:48.268Z,0.02
2022-12-19T01:47:48.715Z,0.08
2022-12-19T01:48:49.599Z,0.02
2022-12-19T01:49:48.783Z,0.07
2022-12-19T01:50:58.825Z,0.08
2022-12-19T01:51:50.098Z,0.08
2022-12-19T01:52:49.310Z,0.08
2022-12-19T01:53:49.806Z,0.07
2022-12-19T01:54:49.642Z,0.04
2022-12-19T01:55:49.836Z,0.04
2022-12-19T01:56:49.962Z,0.08
2022-12-19T01:57:50.144Z,0.11
2022-12-19T01:58:50.354Z,0.11
2022-12-19T01:59:51.496Z,0.14
2022-12-19T02:00:50.709Z,0.11
2022-12-19T02:01:52.217Z,0.08
2022-12-19T02:02:51.106Z,0.12
2022-12-19T02:03:51.178Z,0.09
2022-12-19T02:04:51.338Z,0.11
2022-12-19T02:05:51.501Z,0.12
2022-12-19T02:06:51.690Z,0.09
2022-12-19T02:07:51.831Z,0.12
2022-12-19T02:08:52.022Z,0.11
2022-12-19T02:09:57.261Z,0.11
2022-12-19T02:10:53.372Z,0.11
2022-12-19T02:11:52.574Z,0.12
2022-12-19T02:12:52.738Z,0.11
2022-12-19T02:13:52.905Z,0.11
2022-12-19T02:14:53.078Z,0.14
2022-12-19T02:15:53.257Z,0.12
2022-12-19T02:16:53.472Z,0.18
2022-12-19T02:17:53.584Z,0.12
2022-12-19T02:18:53.850Z,0.09
2022-12-19T02:19:53.951Z,0.12
2022-12-19T02:20:54.114Z,0.12
2022-12-19T02:21:54.895Z,0.12
2022-12-19T02:22:54.462Z,0.08
2022-12-19T02:23:54.644Z,0.09
2022-12-19T02:24:54.835Z,0.09
2022-12-19T02:25:54.993Z,0.12
2022-12-19T02:26:55.175Z,0.09
2022-12-19T02:27:55.336Z,0.08
2022-12-19T02:28:55.523Z,0.07
2022-12-19T02:29:55.696Z,0.08
2022-12-19T02:30:55.863Z,0.11
2022-12-19T02:31:56.041Z,0.08
2022-12-19T02:32:56.175Z,0.09
2022-12-19T02:33:56.636Z,0.15
2022-12-19T02:34:56.531Z,0.08
2022-12-19T02:35:56.679Z,0.12
2022-12-19T02:36:56.866Z,0.08
2022-12-19T02:37:57.014Z,0.11
2022-12-19T02:38:57.202Z,0.12
2022-12-19T02:39:57.378Z,0.12
2022-12-19T02:40:57.548Z,0.09
2022-12-19T02:41:57.718Z,0.15
2022-12-19T02:42:57.875Z,0.15
2022-12-19T02:43:58.988Z,0.12
2022-12-19T02:44:58.234Z,0.15
2022-12-19T02:45:58.442Z,0.12
2022-12-19T02:46:58.558Z,0.18
2022-12-19T02:47:58.709Z,0.18
2022-12-19T02:48:58.904Z,0.14
2022-12-19T02:49:59.081Z,0.11
2022-12-19T02:50:59.242Z,0.18
2022-12-19T02:51:59.436Z,0.18
2022-12-19T02:52:59.598Z,0.15
2022-12-19T02:53:59.767Z,0.19
2022-12-19T02:54:59.976Z,0.20
2022-12-19T02:56:00.149Z,0.20
2022-12-19T02:57:00.281Z,0.14
2022-12-19T02:58:00.425Z,0.25
2022-12-19T02:59:00.609Z,0.20
2022-12-19T03:00:00.784Z,0.15
2022-12-19T03:01:00.980Z,0.19
2022-12-19T03:02:01.301Z,0.15
2022-12-19T03:03:01.676Z,0.22
2022-12-19T03:04:01.473Z,0.23
2022-12-19T03:05:01.679Z,0.23
2022-12-19T03:06:01.804Z,0.25
2022-12-19T03:07:02.000Z,0.25
2022-12-19T03:08:02.117Z,0.27
2022-12-19T03:09:02.309Z,0.30
2022-12-19T03:10:02.509Z,0.27
2022-12-19T03:11:02.632Z,0.29
2022-12-19T03:12:02.798Z,0.27
2022-12-19T03:13:02.961Z,0.27
2022-12-19T03:14:03.117Z,0.32
2022-12-19T03:15:03.335Z,0.33
2022-12-19T03:16:03.475Z,0.32
2022-12-19T03:17:03.650Z,0.37
2022-12-19T03:18:03.785Z,0.33
2022-12-19T03:19:03.959Z,0.36
2022-12-19T03:20:04.149Z,0.36
2022-12-19T03:21:04.317Z,0.36
2022-12-19T03:22:04.498Z,0.36
2022-12-19T03:23:05.625Z,0.37
2022-12-19T03:24:04.829Z,0.36
2022-12-19T03:25:04.997Z,0.38
2022-12-19T03:26:05.177Z,0.37
2022-12-19T03:27:05.350Z,0.38
2022-12-19T03:28:05.502Z,0.44
2022-12-19T03:29:05.674Z,0.43
2022-12-19T03:30:05.826Z,0.40
2022-12-19T03:31:06.070Z,0.41
2022-12-19T03:32:06.167Z,0.41
2022-12-19T03:33:06.340Z,0.43
2022-12-19T03:34:06.512Z,0.41
2022-12-19T03:35:06.693Z,0.43
2022-12-19T03:36:06.873Z,0.40
2022-12-19T03:37:07.098Z,0.41
2022-12-19T03:38:07.223Z,0.40
2022-12-19T03:39:07.393Z,0.41
2022-12-19T03:40:07.553Z,0.43
2022-12-19T03:41:07.715Z,0.43
2022-12-19T03:42:07.893Z,0.43
2022-12-19T03:43:08.055Z,0.38
2022-12-19T03:44:08.217Z,0.45
2022-12-19T03:45:08.394Z,0.38
2022-12-19T03:46:08.616Z,0.43
2022-12-19T03:47:08.767Z,0.41
2022-12-19T03:48:08.913Z,0.43
2022-12-19T03:49:09.083Z,0.44
2022-12-19T03:50:09.223Z,0.41
2022-12-19T03:51:09.408Z,0.44
2022-12-19T03:52:09.580Z,0.38
2022-12-19T03:53:09.767Z,0.48
2022-12-19T03:54:09.941Z,0.45
2022-12-19T03:55:10.098Z,0.47
2022-12-19T03:56:10.259Z,0.45
2022-12-19T03:57:10.451Z,0.44
2022-12-19T03:58:10.631Z,0.43
2022-12-19T03:59:10.788Z,0.43
2022-12-19T04:00:10.954Z,0.45
2022-12-19T04:01:11.163Z,0.40
2022-12-19T04:02:11.364Z,0.45
2022-12-19T04:03:11.532Z,0.43
2022-12-19T04:04:11.623Z,0.44
2022-12-19T04:05:11.801Z,0.44
2022-12-19T04:06:11.968Z,0.44
2022-12-19T04:07:12.143Z,0.40
2022-12-19T04:08:12.308Z,0.47
2022-12-19T04:09:12.515Z,0.50
2022-12-19T04:10:12.647Z,0.38
2022-12-19T04:11:12.810Z,0.45
2022-12-19T04:12:12.974Z,0.43
2022-12-19T04:13:13.152Z,0.43
2022-12-19T04:14:13.370Z,0.44
2022-12-19T04:15:13.486Z,0.47
2022-12-19T04:16:13.740Z,0.44
2022-12-19T04:17:13.829Z,0.48
2022-12-19T04:18:13.986Z,0.48
2022-12-19T04:19:14.189Z,0.51
2022-12-19T04:20:14.336Z,0.48
2022-12-19T04:21:14.503Z,0.44
2022-12-19T04:22:14.638Z,0.44
2022-12-19T04:23:14.814Z,0.41
2022-12-19T04:24:15.007Z,0.43
2022-12-19T04:25:15.160Z,0.47
2022-12-19T04:26:15.331Z,0.43
2022-12-19T04:27:15.510Z,0.41
2022-12-19T04:28:15.670Z,0.47
2022-12-19T04:29:15.851Z,0.40
2022-12-19T04:30:16.013Z,0.44
2022-12-19T04:31:16.223Z,0.43
2022-12-19T04:32:16.350Z,0.43
2022-12-19T04:33:16.533Z,0.41
2022-12-19T04:34:16.719Z,0.43
2022-12-19T04:35:16.882Z,0.41
2022-12-19T04:36:17.032Z,0.44
2022-12-19T04:37:17.210Z,0.43
2022-12-19T04:38:17.363Z,0.43
2022-12-19T04:39:17.554Z,0.44
2022-12-19T04:40:17.710Z,0.45
2022-12-19T04:41:17.876Z,0.43
2022-12-19T04:42:18.031Z,0.43
2022-12-19T04:43:18.206Z,0.44
2022-12-19T04:44:18.389Z,0.48
2022-12-19T04:45:18.552Z,0.44
2022-12-19T04:46:18.740Z,0.43
2022-12-19T04:47:18.911Z,0.48
2022-12-19T04:48:19.068Z,0.48
2022-12-19T04:49:19.265Z,0.48
2022-12-19T04:50:19.419Z,0.47
2022-12-19T04:51:19.590Z,0.45
2022-12-19T04:52:19.860Z,0.51
2022-12-19T04:53:19.944Z,0.48
2022-12-19T04:54:20.119Z,0.51
2022-12-19T04:55:20.279Z,0.53
2022-12-19T04:56:20.472Z,0.51
2022-12-19T04:57:20.632Z,0.55
2022-12-19T04:58:22.133Z,0.51
2022-12-19T04:59:20.967Z,0.51
2022-12-19T05:00:21.124Z,0.53
2022-12-19T05:01:21.398Z,0.53
2022-12-19T05:02:21.543Z,0.55
2022-12-19T05:03:21.653Z,0.50
2022-12-19T05:04:21.806Z,0.53
2022-12-19T05:05:21.971Z,0.58
2022-12-19T05:06:22.136Z,0.58
2022-12-19T05:07:22.300Z,0.56
2022-12-19T05:08:22.467Z,0.58
2022-12-19T05:09:22.658Z,0.61
2022-12-19T05:10:22.808Z,0.61
2022-12-19T05:11:22.988Z,0.56
2022-12-19T05:12:23.143Z,0.63
2022-12-19T05:13:23.324Z,0.62
2022-12-19T05:14:23.512Z,0.61
2022-12-19T05:15:23.728Z,0.65
2022-12-19T05:16:23.875Z,0.63
2022-12-19T05:17:24.024Z,0.63
2022-12-19T05:18:24.188Z,0.66
2022-12-19T05:19:24.381Z,0.63
2022-12-19T05:20:24.530Z,0.68
2022-12-19T05:21:24.718Z,0.69
2022-12-19T05:22:24.871Z,0.71
2022-12-19T05:23:25.034Z,0.74
2022-12-19T05:24:25.217Z,0.68
2022-12-19T05:25:25.377Z,0.69
2022-12-19T05:26:25.540Z,0.71
2022-12-19T05:27:25.712Z,0.71
2022-12-19T05:28:25.888Z,0.74
2022-12-19T05:29:26.041Z,0.76
2022-12-19T05:30:26.201Z,0.76
2022-12-19T05:31:26.478Z,0.73
2022-12-19T05:32:26.685Z,0.83
2022-12-19T05:33:26.728Z,0.80
2022-12-19T05:34:26.886Z,0.76
2022-12-19T05:35:27.089Z,0.81
2022-12-19T05:36:32.271Z,0.80
2022-12-19T05:37:28.442Z,0.84
2022-12-19T05:38:27.601Z,0.84
2022-12-19T05:39:27.774Z,0.79
2022-12-19T05:40:27.942Z,0.84
2022-12-19T05:41:28.125Z,0.84
2022-12-19T05:42:28.278Z,0.89
2022-12-19T05:43:28.451Z,0.83
2022-12-19T05:44:28.616Z,0.92
2022-12-19T05:45:28.781Z,0.92
2022-12-19T05:46:28.964Z,0.89
2022-12-19T05:47:29.122Z,0.92
2022-12-19T05:48:29.283Z,0.92
2022-12-19T05:49:29.452Z,0.95
2022-12-19T05:50:29.671Z,0.94
2022-12-19T05:51:29.792Z,0.95
2022-12-19T05:52:29.952Z,0.97
2022-12-19T05:53:30.116Z,0.98
2022-12-19T05:54:30.297Z,0.97
2022-12-19T05:55:30.483Z,0.98
2022-12-19T05:56:30.639Z,1.02
2022-12-19T05:57:30.802Z,1.02
2022-12-19T05:58:30.986Z,0.97
2022-12-19T05:59:31.136Z,0.99
2022-12-19T06:00:31.372Z,0.99
2022-12-19T06:01:31.485Z,1.04
2022-12-19T06:02:32.131Z,1.05
2022-12-19T06:03:31.821Z,1.01
2022-12-19T06:04:31.982Z,1.07
2022-12-19T06:05:32.152Z,1.07
2022-12-19T06:06:32.323Z,1.05
2022-12-19T06:07:32.482Z,1.08
2022-12-19T06:08:32.658Z,1.13
2022-12-19T06:09:32.833Z,1.07
2022-12-19T06:10:32.997Z,1.15
2022-12-19T06:11:33.181Z,1.08
2022-12-19T06:12:33.340Z,1.13
2022-12-19T06:13:33.507Z,1.10
2022-12-19T06:14:33.711Z,1.10
2022-12-19T06:15:33.843Z,1.15
2022-12-19T06:16:34.033Z,1.17
2022-12-19T06:17:34.192Z,1.08
2022-12-19T06:18:34.382Z,1.13
2022-12-19T06:19:34.523Z,1.16
2022-12-19T06:20:34.685Z,1.15
2022-12-19T06:21:34.852Z,1.22
2022-12-19T06:22:35.016Z,1.17
2022-12-19T06:23:35.196Z,1.20
2022-12-19T06:24:35.396Z,1.25
2022-12-19T06:25:35.539Z,1.19
2022-12-19T06:26:35.699Z,1.25
2022-12-19T06:27:35.852Z,1.22
2022-12-19T06:28:36.020Z,1.20
2022-12-19T06:29:36.208Z,1.23
2022-12-19T06:30:36.367Z,1.30
2022-12-19T06:31:36.633Z,1.23
2022-12-19T06:32:38.256Z,1.31
2022-12-19T06:33:36.883Z,1.30
2022-12-19T06:35:03.152Z,1.28
2022-12-19T06:35:38.194Z,1.30
2022-12-19T06:36:37.393Z,1.26
2022-12-19T06:37:39.566Z,1.26
2022-12-19T06:38:37.725Z,1.30
2022-12-19T06:39:37.919Z,1.31
2022-12-19T06:40:38.079Z,1.31
2022-12-19T06:41:38.227Z,1.35
2022-12-19T06:42:38.412Z,1.31
2022-12-19T06:43:38.572Z,1.39
2022-12-19T06:44:38.754Z,1.34
2022-12-19T06:45:38.943Z,1.41
2022-12-19T06:46:39.188Z,1.37
2022-12-19T06:47:39.292Z,1.37
2022-12-19T06:48:39.428Z,1.41
2022-12-19T06:49:39.590Z,1.39
2022-12-19T06:50:39.759Z,1.39
2022-12-19T06:51:39.914Z,1.35
2022-12-19T06:52:40.130Z,1.37
2022-12-19T06:53:40.279Z,1.39
2022-12-19T06:54:40.429Z,1.42
2022-12-19T06:55:40.574Z,1.42
2022-12-19T06:56:40.752Z,1.45
2022-12-19T06:57:40.934Z,1.45
2022-12-19T06:58:41.103Z,1.42
2022-12-19T06:59:41.257Z,1.46
2022-12-19T07:00:41.488Z,1.46
2022-12-19T07:01:41.808Z,1.50
2022-12-19T07:02:41.909Z,1.46
2022-12-19T07:03:41.945Z,1.50
2022-12-19T07:04:42.106Z,1.46
2022-12-19T07:05:42.268Z,1.52
2022-12-19T07:06:48.705Z,1.49
2022-12-19T07:07:43.606Z,1.52
2022-12-19T07:08:42.754Z,1.54
2022-12-19T07:09:42.914Z,1.54
2022-12-19T07:10:43.113Z,1.54
2022-12-19T07:11:43.269Z,1.50
2022-12-19T07:12:43.452Z,1.56
2022-12-19T07:13:43.620Z,1.53
2022-12-19T07:14:46.719Z,1.57
2022-12-19T07:15:44.936Z,1.57
2022-12-19T07:16:44.157Z,1.59
2022-12-19T07:17:44.414Z,1.60
2022-12-19T07:18:44.480Z,1.59
2022-12-19T07:19:44.672Z,1.59
2022-12-19T07:20:45.418Z,1.67
2022-12-19T07:21:45.031Z,1.60
2022-12-19T07:22:45.162Z,1.62
2022-12-19T07:23:45.348Z,1.70
2022-12-19T07:24:45.533Z,1.67
2022-12-19T07:25:45.675Z,1.68
2022-12-19T07:26:45.873Z,1.70
2022-12-19T07:27:46.017Z,1.72
2022-12-19T07:28:46.195Z,1.67
2022-12-19T07:29:46.385Z,1.70
2022-12-19T07:30:46.553Z,1.72
2022-12-19T07:31:46.777Z,1.70
2022-12-19T07:32:46.884Z,1.75
2022-12-19T07:33:47.033Z,1.72
2022-12-19T07:34:47.219Z,1.77
2022-12-19T07:35:47.409Z,1.78
2022-12-19T07:36:47.596Z,1.75
2022-12-19T07:37:47.747Z,1.72
2022-12-19T07:38:47.928Z,1.77
2022-12-19T07:39:48.105Z,1.77
2022-12-19T07:40:48.289Z,1.78
2022-12-19T07:41:48.485Z,1.81
2022-12-19T07:42:48.638Z,1.81
2022-12-19T07:43:48.794Z,1.78
2022-12-19T07:44:48.975Z,1.89
2022-12-19T07:45:49.189Z,1.82
2022-12-19T07:46:49.334Z,1.82
2022-12-19T07:47:49.483Z,1.86
2022-12-19T07:48:49.661Z,1.86
2022-12-19T07:49:49.841Z,1.92
2022-12-19T07:50:50.029Z,1.96
2022-12-19T07:51:50.208Z,1.98
2022-12-19T07:52:50.340Z,2.04
2022-12-19T07:53:50.537Z,2.06
2022-12-19T07:54:50.715Z,2.08
2022-12-19T07:55:50.871Z,2.07
2022-12-19T07:56:51.022Z,2.13
2022-12-19T07:57:51.227Z,2.11
2022-12-19T07:58:51.364Z,2.14
2022-12-19T07:59:51.540Z,2.16
2022-12-19T08:00:51.776Z,2.20
2022-12-19T08:01:52.081Z,2.20
2022-12-19T08:02:52.237Z,2.24
2022-12-19T08:03:52.271Z,2.21
2022-12-19T08:04:52.442Z,2.28
2022-12-19T08:05:52.638Z,2.31
2022-12-19T08:06:52.803Z,2.32
2022-12-19T08:07:52.952Z,2.29
2022-12-19T08:08:53.131Z,2.29
2022-12-19T08:09:53.322Z,2.32
2022-12-19T08:10:53.540Z,2.35
2022-12-19T08:11:53.670Z,2.35
2022-12-19T08:12:53.850Z,2.34
2022-12-19T08:13:54.024Z,2.34
2022-12-19T08:14:57.161Z,2.34
2022-12-19T08:15:54.352Z,2.32
2022-12-19T08:17:55.780Z,2.39
2022-12-19T08:18:54.843Z,2.42
2022-12-19T08:19:55.193Z,2.36
2022-12-19T08:20:55.212Z,2.39
2022-12-19T08:21:55.426Z,2.34
2022-12-19T08:22:55.550Z,2.46
2022-12-19T08:23:55.714Z,2.47
2022-12-19T08:24:55.893Z,2.49
2022-12-19T08:25:56.294Z,2.49
2022-12-19T08:26:56.225Z,2.51
2022-12-19T08:27:56.385Z,2.57
2022-12-19T08:28:56.558Z,2.54
2022-12-19T08:29:56.721Z,2.56
2022-12-19T08:30:57.155Z,2.57
2022-12-19T08:31:57.072Z,2.59
2022-12-19T08:32:57.243Z,2.61
2022-12-19T08:33:57.398Z,2.59
2022-12-19T08:34:57.606Z,2.65
2022-12-19T08:35:57.755Z,2.65
2022-12-19T08:36:57.959Z,2.69
2022-12-19T08:37:58.100Z,2.74
2022-12-19T08:38:58.280Z,2.74
2022-12-19T08:39:58.424Z,2.79
2022-12-19T08:40:58.611Z,2.79
2022-12-19T08:41:58.777Z,2.80
2022-12-19T08:42:58.965Z,2.86
2022-12-19T08:43:59.124Z,2.86
2022-12-19T08:44:59.321Z,2.88
2022-12-19T08:45:59.493Z,2.87
2022-12-19T08:46:59.612Z,2.90
2022-12-19T08:47:59.804Z,2.94
2022-12-19T08:48:59.994Z,2.93
2022-12-19T08:50:00.141Z,2.96
2022-12-19T08:51:00.271Z,2.94
2022-12-19T08:52:00.440Z,2.94
2022-12-19T08:53:00.608Z,2.99
2022-12-19T08:54:01.646Z,3.02
2022-12-19T08:55:00.967Z,3.02
2022-12-19T08:56:01.151Z,3.01
2022-12-19T08:57:01.339Z,3.04
2022-12-19T08:58:01.549Z,3.06
2022-12-19T08:59:01.671Z,3.04
2022-12-19T09:00:01.814Z,3.05
2022-12-19T09:01:05.537Z,3.06
2022-12-19T09:02:02.645Z,3.11
2022-12-19T09:03:02.647Z,3.12
2022-12-19T09:05:57.237Z,3.14
2022-12-19T09:06:02.561Z,3.11
2022-12-19T09:06:09.120Z,3.17
2022-12-19T09:07:04.063Z,3.15
2022-12-19T09:08:03.238Z,3.15
2022-12-19T09:09:03.415Z,3.15
2022-12-19T09:10:03.552Z,3.19
2022-12-19T09:11:03.742Z,3.19
2022-12-19T09:12:03.940Z,3.22
2022-12-19T09:13:04.139Z,3.24
2022-12-19T09:14:04.301Z,3.23
2022-12-19T09:15:04.469Z,3.23
2022-12-19T09:16:04.718Z,3.27
2022-12-19T09:17:05.051Z,3.24
2022-12-19T09:18:05.009Z,3.22
2022-12-19T09:19:05.157Z,3.26
2022-12-19T09:20:05.307Z,3.27
2022-12-19T09:21:07.806Z,3.27
2022-12-19T09:22:05.659Z,3.27
2022-12-19T09:23:05.863Z,3.32
2022-12-19T09:24:08.112Z,3.35
2022-12-19T09:25:06.173Z,3.40
2022-12-19T09:26:06.355Z,3.37
2022-12-19T09:27:06.555Z,3.38
2022-12-19T09:29:20.601Z,3.44
2022-12-19T09:30:08.360Z,3.45
2022-12-19T09:31:07.296Z,3.40
2022-12-19T09:32:07.476Z,3.47
2022-12-19T09:33:07.581Z,3.48
2022-12-19T09:34:07.749Z,3.52
2022-12-19T09:35:07.896Z,3.49
2022-12-19T09:36:09.907Z,3.51
2022-12-19T09:37:08.285Z,3.52
2022-12-19T09:38:08.411Z,3.56
2022-12-19T09:39:08.545Z,3.60
2022-12-19T09:40:08.721Z,3.66
2022-12-19T09:41:08.901Z,3.60
2022-12-19T09:42:09.065Z,3.62
2022-12-19T09:43:09.237Z,3.67
2022-12-19T09:44:09.383Z,3.65
2022-12-19T09:45:09.557Z,3.73
2022-12-19T09:46:09.813Z,3.74
2022-12-19T09:47:09.900Z,3.78
2022-12-19T09:48:10.067Z,3.78
2022-12-19T09:49:11.218Z,3.77
2022-12-19T09:50:10.377Z,3.83
2022-12-19T09:51:11.185Z,3.85
2022-12-19T09:52:10.717Z,3.83
2022-12-19T09:53:10.918Z,3.87
2022-12-19T09:54:11.070Z,3.90
2022-12-19T09:55:11.251Z,3.96
2022-12-19T09:56:11.412Z,3.93
2022-12-19T09:57:11.590Z,3.98
2022-12-19T09:58:11.745Z,4.01
2022-12-19T09:59:11.937Z,4.01
2022-12-19T10:00:12.134Z,4.03
2022-12-19T10:01:12.265Z,4.06
2022-12-19T10:02:12.641Z,4.08
2022-12-19T10:03:12.991Z,4.11
2022-12-19T10:04:12.784Z,4.13
2022-12-19T10:05:54.571Z,4.13
2022-12-19T10:07:14.445Z,4.19
2022-12-19T10:07:33.170Z,4.21
2022-12-19T10:08:14.431Z,4.24
2022-12-19T10:10:55.586Z,4.24
2022-12-19T10:12:33.459Z,4.28
2022-12-19T10:12:38.706Z,4.27
2022-12-19T10:12:45.957Z,4.32
2022-12-19T10:13:15.270Z,4.40
2022-12-19T10:14:14.450Z,4.38
2022-12-19T10:15:14.602Z,4.39
2022-12-19T10:16:14.806Z,4.39
2022-12-19T10:17:30.370Z,4.43
2022-12-19T10:18:16.088Z,4.43
2022-12-19T10:19:15.256Z,4.45
2022-12-19T10:20:15.472Z,4.48
2022-12-19T10:21:15.574Z,4.46
2022-12-19T10:22:18.655Z,4.46
2022-12-19T10:23:15.917Z,4.45
2022-12-19T10:24:16.088Z,4.50
2022-12-19T10:25:16.271Z,4.54
2022-12-19T10:26:16.437Z,4.54
2022-12-19T10:27:16.603Z,4.55
2022-12-19T10:28:16.777Z,4.55
2022-12-19T10:29:16.947Z,4.60
2022-12-19T10:30:17.151Z,4.57
2022-12-19T10:31:21.908Z,4.46
2022-12-19T10:32:18.504Z,4.45
2022-12-19T10:33:20.361Z,4.39
2022-12-19T10:34:17.804Z,4.32
2022-12-19T10:35:18.013Z,4.32
2022-12-19T10:36:18.214Z,4.32
2022-12-19T10:37:27.005Z,4.28
2022-12-19T10:38:19.551Z,4.20
2022-12-19T10:39:18.733Z,4.24
2022-12-19T10:40:27.849Z,4.19
2022-12-19T10:41:20.121Z,4.19
2022-12-19T10:42:19.291Z,4.13
2022-12-19T10:43:30.372Z,4.11
2022-12-19T10:44:20.631Z,4.02
2022-12-19T10:45:19.803Z,3.99
2022-12-19T10:46:20.058Z,3.95
2022-12-19T10:47:20.128Z,3.92
2022-12-19T10:48:21.253Z,3.93
2022-12-19T10:49:21.466Z,3.85
2022-12-19T10:50:20.637Z,3.87
2022-12-19T10:51:21.825Z,3.88
2022-12-19T10:52:20.997Z,3.92
2022-12-19T10:53:21.176Z,3.85
2022-12-19T10:54:21.370Z,3.84
2022-12-19T10:55:21.519Z,3.78
2022-12-19T10:56:21.713Z,3.74
2022-12-19T10:57:21.845Z,3.77
2022-12-19T10:58:22.033Z,3.69
2022-12-19T10:59:22.205Z,3.78
2022-12-19T11:00:22.407Z,3.75
2022-12-19T11:01:22.648Z,3.77
2022-12-19T11:02:22.768Z,3.74
2022-12-19T11:03:23.069Z,3.74
2022-12-19T11:04:23.630Z,3.74
2022-12-19T11:05:23.259Z,3.75
2022-12-19T11:06:23.389Z,3.77
2022-12-19T11:07:23.556Z,3.80
2022-12-19T11:08:23.695Z,3.73
2022-12-19T11:09:23.865Z,3.67
2022-12-19T11:11:00.503Z,3.63
2022-12-19T11:13:28.267Z,3.59
2022-12-19T11:16:06.778Z,3.65
2022-12-19T11:17:52.182Z,3.66
2022-12-19T11:20:28.155Z,3.78
2022-12-19T11:21:02.134Z,3.98
2022-12-19T11:22:17.330Z,3.85
2022-12-19T11:24:24.133Z,4.06
2022-12-19T11:25:23.690Z,4.03
2022-12-19T11:29:17.291Z,4.10
2022-12-19T11:29:31.405Z,4.25
2022-12-19T11:29:31.694Z,4.25
2022-12-19T11:29:35.108Z,4.10
2022-12-19T11:29:40.887Z,4.35
2022-12-19T11:29:44.434Z,4.17
2022-12-19T11:30:07.046Z,4.30
2022-12-19T11:30:09.086Z,4.39
2022-12-19T11:30:25.559Z,4.30
2022-12-19T11:30:39.360Z,4.48
2022-12-19T11:32:01.805Z,4.58
2022-12-19T11:32:32.134Z,4.61
2022-12-19T11:32:40.413Z,4.69
2022-12-19T11:33:29.064Z,4.72
2022-12-19T11:34:28.173Z,4.78
2022-12-19T11:35:36.758Z,4.87
2022-12-19T11:36:29.495Z,4.87
2022-12-19T11:37:28.677Z,4.91
2022-12-19T11:38:28.886Z,4.96
2022-12-19T11:39:29.007Z,4.99
2022-12-19T11:40:29.188Z,5.04
2022-12-19T11:41:29.353Z,5.08
2022-12-19T11:42:29.520Z,5.05
2022-12-19T11:43:46.428Z,5.15
2022-12-19T11:44:30.855Z,5.19
2022-12-19T11:45:30.021Z,5.14
2022-12-19T11:46:30.194Z,5.21
2022-12-19T11:47:30.375Z,5.30
2022-12-19T11:48:30.684Z,5.33
2022-12-19T11:49:30.730Z,5.37
2022-12-19T11:50:30.884Z,5.42
2022-12-19T11:51:31.045Z,5.44
2022-12-19T11:53:32.388Z,5.48
2022-12-19T11:54:31.555Z,5.45
2022-12-19T11:55:31.815Z,5.51
2022-12-19T11:56:31.896Z,5.50
2022-12-19T11:57:32.077Z,5.48
2022-12-19T11:58:32.233Z,5.55
2022-12-19T11:59:32.405Z,5.55
2022-12-19T12:00:32.539Z,5.55
2022-12-19T12:01:32.784Z,5.57
2022-12-19T12:02:32.867Z,5.55
2022-12-19T12:03:33.074Z,5.54
2022-12-19T12:04:33.226Z,5.54
2022-12-19T12:05:33.347Z,5.63
2022-12-19T12:06:33.628Z,5.60
2022-12-19T12:08:37.985Z,5.58
2022-12-19T12:10:19.548Z,5.60
2022-12-19T12:12:32.243Z,5.58
2022-12-19T12:16:55.041Z,5.57
2022-12-19T12:17:45.332Z,5.54
2022-12-19T12:19:21.840Z,5.58
2022-12-19T12:22:07.688Z,5.54
2022-12-19T12:24:07.647Z,5.54
2022-12-19T12:25:20.518Z,5.51
2022-12-19T12:28:23.025Z,5.48
2022-12-19T12:29:36.606Z,5.50
2022-12-19T12:31:04.009Z,5.47
2022-12-19T12:31:04.641Z,5.50
2022-12-19T12:31:08.837Z,5.44
2022-12-19T12:31:14.531Z,5.44
2022-12-19T12:31:18.925Z,5.44
2022-12-19T12:31:32.656Z,5.36
2022-12-19T12:31:38.990Z,5.32
2022-12-19T12:31:44.726Z,5.37
2022-12-19T12:31:51.388Z,5.29
2022-12-19T12:31:51.872Z,5.36
2022-12-19T12:31:58.100Z,5.30
2022-12-19T12:32:00.571Z,5.33
2022-12-19T12:32:03.191Z,5.39
2022-12-19T12:35:30.604Z,5.29
2022-12-19T12:35:40.933Z,5.24
2022-12-19T12:35:48.780Z,5.21
2022-12-19T12:37:52.552Z,5.27
2022-12-19T12:38:12.217Z,5.21
2022-12-19T12:38:40.292Z,5.15
2022-12-19T12:39:39.088Z,5.15
2022-12-19T12:40:39.273Z,5.11
2022-12-19T12:41:39.414Z,5.18
2022-12-19T12:42:39.622Z,5.15
2022-12-19T12:43:39.786Z,5.19
2022-12-19T12:44:45.514Z,5.24
2022-12-19T12:45:41.154Z,5.27
2022-12-19T12:46:40.286Z,5.26
2022-12-19T12:47:40.496Z,5.32
2022-12-19T12:48:40.661Z,5.29
2022-12-19T12:49:40.819Z,5.26
2022-12-19T12:50:40.995Z,5.29
2022-12-19T12:51:41.195Z,5.24
2022-12-19T12:52:41.393Z,5.26
2022-12-19T12:53:41.531Z,5.26
2022-12-19T12:54:41.713Z,5.24
2022-12-19T12:55:41.904Z,5.24
2022-12-19T12:56:42.075Z,5.23
2022-12-19T12:57:42.263Z,5.23
2022-12-19T12:58:42.394Z,5.24
2022-12-19T12:59:42.579Z,5.26
2022-12-19T13:00:42.746Z,5.21
2022-12-19T13:01:43.129Z,5.19
2022-12-19T13:02:43.200Z,5.15
2022-12-19T13:03:43.284Z,5.15
2022-12-19T13:04:43.677Z,5.16
2022-12-19T13:05:43.599Z,5.21
2022-12-19T13:06:43.799Z,5.24
2022-12-19T13:07:43.967Z,5.27
2022-12-19T13:08:44.120Z,5.32
2022-12-19T13:09:44.283Z,5.27
2022-12-19T13:10:44.435Z,5.30
2022-12-19T13:11:44.669Z,5.36
2022-12-19T13:12:44.829Z,5.36
2022-12-19T13:13:44.979Z,5.48
2022-12-19T13:14:45.188Z,5.45
2022-12-19T13:15:45.330Z,5.48
2022-12-19T13:16:45.666Z,5.52
2022-12-19T13:17:45.648Z,5.55
2022-12-19T13:18:45.824Z,5.51
2022-12-19T13:19:46.011Z,5.52
2022-12-19T13:20:46.205Z,5.54
2022-12-19T13:21:46.355Z,5.52
2022-12-19T13:22:46.661Z,5.57
2022-12-19T13:23:46.730Z,5.51